Time;durP1;ratioP1;P1;durP2;ratioP2;P2;SDS_P1;SDS_P2;PMS_P1;PMS_P2;Temp;Humidity;BMP_temperature;BMP_pressure;BME280_temperature;BME280_humidity;BME280_pressure;Samples;Min_cycle;Max_cycle;Signal;HPM_P1;HPM_P2
2023/05/02 00:00:53;;;;;;;27.85;25.45;;;10.90;99.90;;;;;;4940548;28;20047;-75
2023/05/02 00:03:20;;;;;;;28.67;26.33;;;10.90;99.90;;;;;;4942112;29;20061;-75
2023/05/02 00:05:47;;;;;;;28.23;25.92;;;11.00;99.90;;;;;;4939319;28;20047;-75
2023/05/02 00:08:15;;;;;;;28.27;25.92;;;11.00;99.90;;;;;;4943336;29;20051;-75
2023/05/02 00:10:41;;;;;;;27.05;24.95;;;11.00;99.90;;;;;;4954896;28;20098;-75
2023/05/02 00:13:09;;;;;;;27.27;25.10;;;11.10;99.90;;;;;;4927797;29;20130;-76
2023/05/02 00:15:36;;;;;;;27.92;25.83;;;11.00;99.90;;;;;;4939470;28;20031;-76
2023/05/02 00:18:02;;;;;;;29.25;26.65;;;11.10;99.90;;;;;;4957981;28;20660;-76
2023/05/02 00:20:31;;;;;;;29.65;27.05;;;11.00;99.90;;;;;;4942064;28;20050;-75
2023/05/02 00:23:02;;;;;;;29.17;26.77;;;11.00;99.90;;;;;;4926197;29;20126;-76
2023/05/02 00:25:28;;;;;;;29.65;27.13;;;11.00;99.90;;;;;;4938508;28;20786;-76
2023/05/02 00:27:55;;;;;;;28.27;26.15;;;11.00;99.90;;;;;;4941084;28;20050;-74
2023/05/02 00:30:22;;;;;;;29.88;27.45;;;11.00;99.90;;;;;;4939681;28;20448;-75
2023/05/02 00:32:48;;;;;;;31.08;28.48;;;11.00;99.90;;;;;;4954605;28;20094;-76
2023/05/02 00:35:15;;;;;;;31.38;28.67;;;10.90;99.90;;;;;;4957375;28;20039;-76
2023/05/02 00:37:42;;;;;;;32.88;29.98;;;10.90;99.90;;;;;;4939455;29;20043;-75
2023/05/02 00:40:09;;;;;;;33.13;30.13;;;10.90;99.90;;;;;;4954185;28;20036;-76
2023/05/02 00:42:36;;;;;;;32.97;30.00;;;10.90;99.90;;;;;;4932777;28;20044;-75
2023/05/02 00:45:05;;;;;;;34.75;31.33;;;11.00;99.90;;;;;;4936189;28;20047;-76
2023/05/02 00:47:32;;;;;;;34.30;30.88;;;11.00;99.90;;;;;;4924606;29;20559;-75
2023/05/02 00:50:00;;;;;;;35.92;31.80;;;10.90;99.90;;;;;;4940916;28;20496;-75
2023/05/02 00:52:28;;;;;;;38.75;33.92;;;10.90;99.90;;;;;;4952944;28;20142;-75
2023/05/02 00:54:55;;;;;;;37.35;33.47;;;10.80;99.90;;;;;;4954998;28;20039;-75
2023/05/02 00:57:22;;;;;;;38.03;34.08;;;10.90;99.90;;;;;;4940197;28;20040;-75
2023/05/02 00:59:49;;;;;;;39.95;35.78;;;10.90;99.90;;;;;;4953701;28;20589;-76
2023/05/02 01:02:34;;;;;;;38.33;34.28;;;10.80;99.90;;;;;;4931652;28;20043;-77
2023/05/02 01:05:22;;;;;;;37.88;33.88;;;10.80;99.90;;;;;;4942780;28;20059;-75
2023/05/02 01:08:18;;;;;;;39.53;35.28;;;10.80;99.90;;;;;;4939242;29;20047;-75
2023/05/02 01:10:55;;;;;;;39.92;35.45;;;10.80;99.90;;;;;;4938730;28;20122;-76
2023/05/02 01:13:31;;;;;;;40.67;35.45;;;10.80;99.90;;;;;;4940821;28;20045;-76
2023/05/02 01:16:00;;;;;;;42.83;37.80;;;10.80;99.90;;;;;;4953794;28;20636;-76
2023/05/02 01:18:31;;;;;;;42.03;37.13;;;10.90;99.90;;;;;;4941086;28;20047;-76
2023/05/02 01:21:05;;;;;;;42.08;37.50;;;10.80;99.90;;;;;;4954370;28;20035;-75
2023/05/02 01:24:13;;;;;;;43.42;36.05;;;10.80;99.90;;;;;;4946773;28;20055;-76
2023/05/02 01:27:01;;;;;;;52.05;40.72;;;10.80;99.90;;;;;;4931510;28;20130;-75
2023/05/02 01:29:30;;;;;;;49.15;40.13;;;10.80;99.90;;;;;;4940998;29;20047;-75
2023/05/02 01:31:59;;;;;;;51.47;40.70;;;10.80;99.90;;;;;;4953896;28;21243;-75
2023/05/02 01:34:27;;;;;;;52.78;39.60;;;10.80;99.90;;;;;;4940611;28;20065;-75
2023/05/02 01:36:58;;;;;;;56.17;42.55;;;10.80;99.90;;;;;;4953323;28;20035;-77
2023/05/02 01:39:26;;;;;;;55.83;42.70;;;10.80;99.90;;;;;;4940023;28;20047;-75
2023/05/02 01:41:56;;;;;;;52.58;42.58;;;10.80;99.90;;;;;;4938437;28;20043;-75
2023/05/02 01:44:25;;;;;;;53.08;41.67;;;10.80;99.90;;;;;;4938784;28;20055;-74
2023/05/02 01:46:54;;;;;;;54.00;42.85;;;10.80;99.90;;;;;;4937893;28;20050;-76
2023/05/02 01:49:23;;;;;;;56.63;43.13;;;10.80;99.90;;;;;;4940706;29;20087;-76
2023/05/02 01:51:51;;;;;;;53.38;43.75;;;10.80;99.90;;;;;;4938494;28;20055;-76
2023/05/02 01:54:20;;;;;;;54.97;42.60;;;10.70;99.90;;;;;;4941414;28;20509;-76
2023/05/02 01:56:48;;;;;;;55.33;42.47;;;10.70;99.90;;;;;;4936914;28;20047;-75
2023/05/02 01:59:19;;;;;;;57.72;40.92;;;10.70;99.90;;;;;;4937123;28;20066;-76
2023/05/02 02:01:48;;;;;;;57.80;44.15;;;10.60;99.90;;;;;;4950879;28;20429;-76
2023/05/02 02:04:18;;;;;;;56.90;41.35;;;10.60;99.90;;;;;;4942722;28;20086;-75
2023/05/02 02:06:53;;;;;;;59.10;44.15;;;10.50;99.90;;;;;;4937646;28;20051;-76
2023/05/02 02:09:20;;;;;;;51.88;40.95;;;10.50;99.90;;;;;;4940233;28;20055;-75
2023/05/02 02:12:04;;;;;;;55.40;43.70;;;10.50;99.90;;;;;;4936771;28;20059;-76
2023/05/02 02:14:36;;;;;;;54.30;41.60;;;10.50;99.90;;;;;;4939554;29;20067;-74
2023/05/02 02:17:11;;;;;;;60.67;42.55;;;10.50;99.90;;;;;;4953571;28;20142;-75
2023/05/02 02:19:40;;;;;;;56.85;40.13;;;10.50;99.90;;;;;;4922752;29;20053;-76
2023/05/02 02:22:08;;;;;;;59.25;41.20;;;10.40;99.90;;;;;;4955032;28;20039;-75
2023/05/02 02:24:37;;;;;;;61.67;43.03;;;10.50;99.90;;;;;;4938800;28;20047;-76
2023/05/02 02:27:08;;;;;;;59.13;42.13;;;10.50;99.90;;;;;;4940018;28;20047;-76
2023/05/02 02:29:34;;;;;;;63.72;43.60;;;10.60;99.90;;;;;;4938513;28;20139;-76
2023/05/02 02:32:01;;;;;;;57.47;41.40;;;10.60;99.90;;;;;;4954346;28;20580;-74
2023/05/02 02:34:28;;;;;;;64.85;43.45;;;10.60;99.90;;;;;;4939127;29;20043;-76
2023/05/02 02:37:11;;;;;;;62.22;42.55;;;10.60;99.90;;;;;;4952555;28;20047;-75
2023/05/02 02:40:06;;;;;;;64.63;45.15;;;10.60;99.90;;;;;;4952269;28;20076;-75
2023/05/02 02:42:43;;;;;;;59.67;41.55;;;10.60;99.90;;;;;;4932401;28;20536;-74
2023/05/02 02:45:32;;;;;;;65.90;42.72;;;10.70;99.90;;;;;;4936369;28;20043;-77
2023/05/02 02:48:07;;;;;;;71.28;46.28;;;10.70;99.90;;;;;;4938312;29;20146;-76
2023/05/02 02:50:58;;;;;;;64.00;43.70;;;10.70;99.90;;;;;;4952645;28;21527;-75
2023/05/02 02:53:33;;;;;;;71.05;44.95;;;10.70;99.90;;;;;;4932843;28;20130;-75
2023/05/02 02:56:12;;;;;;;73.88;46.45;;;10.60;99.90;;;;;;4943545;28;20047;-75
2023/05/02 02:58:48;;;;;;;75.82;47.50;;;10.60;99.90;;;;;;4938891;28;20544;-76
2023/05/02 03:01:19;;;;;;;83.47;50.55;;;10.50;99.90;;;;;;4953404;28;20674;-75
2023/05/02 03:03:48;;;;;;;81.68;50.50;;;10.50;99.90;;;;;;4935544;28;20051;-75
2023/05/02 03:06:16;;;;;;;88.75;52.38;;;10.60;99.90;;;;;;4939101;28;20682;-75
2023/05/02 03:08:44;;;;;;;93.15;54.92;;;10.60;99.90;;;;;;4934907;28;20074;-76
2023/05/02 03:11:16;;;;;;;89.05;52.47;;;10.50;99.90;;;;;;4940266;28;20043;-76
2023/05/02 03:13:42;;;;;;;99.65;55.55;;;10.50;99.90;;;;;;4951334;28;20153;-75
2023/05/02 03:16:38;;;;;;;98.63;58.30;;;10.50;99.90;;;;;;4953171;28;20043;-76
2023/05/02 03:19:09;;;;;;;100.43;59.20;;;10.50;99.90;;;;;;4940157;28;20130;-75
2023/05/02 03:21:36;;;;;;;101.70;59.42;;;10.40;99.90;;;;;;4936286;28;20075;-76
2023/05/02 03:24:10;;;;;;;100.18;57.17;;;10.40;99.90;;;;;;4931318;28;20063;-75
2023/05/02 03:26:37;;;;;;;106.28;58.00;;;10.30;99.90;;;;;;4940004;28;20102;-75
2023/05/02 03:29:07;;;;;;;98.25;58.47;;;10.30;99.90;;;;;;4941535;28;20039;-75
2023/05/02 03:31:38;;;;;;;111.53;58.20;;;10.20;99.90;;;;;;4955885;28;20061;-75
2023/05/02 03:34:05;;;;;;;100.68;55.95;;;10.20;99.90;;;;;;4945067;28;20460;-76
2023/05/02 03:36:32;;;;;;;99.40;54.78;;;10.20;99.90;;;;;;4944087;28;20051;-75
2023/05/02 03:38:59;;;;;;;98.13;54.60;;;10.20;99.90;;;;;;4940692;28;20093;-76
2023/05/02 03:41:25;;;;;;;104.57;56.90;;;10.20;99.90;;;;;;4942477;28;20770;-75
2023/05/02 03:44:00;;;;;;;104.67;56.07;;;10.20;99.90;;;;;;4938784;29;20101;-75
2023/05/02 03:46:27;;;;;;;89.50;50.65;;;10.20;99.90;;;;;;4941238;28;20058;-75
2023/05/02 03:48:56;;;;;;;92.45;50.42;;;10.20;99.90;;;;;;4955283;28;20138;-74
2023/05/02 03:51:23;;;;;;;91.45;48.58;;;10.10;99.90;;;;;;4941552;28;20485;-75
2023/05/02 03:53:53;;;;;;;87.05;49.10;;;10.00;99.90;;;;;;4954469;28;21267;-75
2023/05/02 03:56:20;;;;;;;86.13;45.80;;;10.10;99.90;;;;;;4939409;28;20043;-75
2023/05/02 03:58:56;;;;;;;95.13;46.95;;;10.10;99.90;;;;;;4954942;28;21102;-73
2023/05/02 04:01:25;;;;;;;92.72;47.05;;;10.00;99.90;;;;;;4957286;28;20047;-74
2023/05/02 04:03:53;;;;;;;89.93;45.65;;;10.00;99.90;;;;;;4954543;28;20054;-74
2023/05/02 04:06:22;;;;;;;85.15;43.38;;;10.00;99.90;;;;;;4956639;28;20051;-75
2023/05/02 04:08:58;;;;;;;82.25;43.53;;;10.00;99.90;;;;;;4954516;28;20047;-74
2023/05/02 04:11:29;;;;;;;89.28;46.60;;;10.00;99.90;;;;;;4955845;28;20063;-74
2023/05/02 04:13:56;;;;;;;86.32;43.85;;;10.00;99.90;;;;;;4954121;28;20047;-75
2023/05/02 04:16:22;;;;;;;88.30;42.75;;;10.00;99.90;;;;;;4955638;28;20071;-73
2023/05/02 04:18:49;;;;;;;83.53;43.28;;;9.80;99.90;;;;;;4938515;28;20075;-75
2023/05/02 04:21:16;;;;;;;85.53;42.60;;;9.80;99.90;;;;;;4956831;28;20042;-73
2023/05/02 04:23:45;;;;;;;91.25;43.30;;;9.90;99.90;;;;;;4940297;28;20047;-75
2023/05/02 04:26:11;;;;;;;85.28;42.03;;;9.80;99.90;;;;;;4953220;28;20074;-74
2023/05/02 04:28:45;;;;;;;85.72;41.92;;;9.80;99.90;;;;;;4939497;28;20054;-75
2023/05/02 04:31:14;;;;;;;91.00;42.03;;;9.90;99.90;;;;;;4949146;28;20047;-75
2023/05/02 04:33:42;;;;;;;87.32;43.33;;;10.00;99.90;;;;;;4926348;29;20047;-76
2023/05/02 04:36:10;;;;;;;82.65;41.30;;;10.00;99.90;;;;;;4948289;28;20067;-76
2023/05/02 04:38:41;;;;;;;86.95;42.33;;;10.00;99.90;;;;;;4955069;28;20099;-76
2023/05/02 04:41:07;;;;;;;78.45;40.90;;;9.90;99.90;;;;;;4951132;28;20048;-75
2023/05/02 04:43:41;;;;;;;81.40;40.88;;;9.90;99.90;;;;;;4956365;28;20066;-76
2023/05/02 04:46:08;;;;;;;75.97;38.78;;;9.80;99.90;;;;;;4954942;28;20086;-75
2023/05/02 04:48:40;;;;;;;78.97;40.20;;;9.90;99.90;;;;;;4956777;28;20089;-77
2023/05/02 04:51:09;;;;;;;77.10;38.65;;;9.80;99.90;;;;;;4952992;28;20059;-76
2023/05/02 04:53:36;;;;;;;80.10;40.55;;;9.80;99.90;;;;;;4940886;29;20114;-76
2023/05/02 04:56:03;;;;;;;84.82;40.00;;;9.80;99.90;;;;;;4937448;28;20039;-76
2023/05/02 04:58:34;;;;;;;79.93;34.97;;;9.80;99.90;;;;;;4940330;29;20057;-77
2023/05/02 05:01:04;;;;;;;83.55;40.17;;;9.70;99.90;;;;;;4954591;28;20074;-76
2023/05/02 05:03:32;;;;;;;88.07;43.38;;;9.70;99.90;;;;;;4956213;28;20106;-76
2023/05/02 05:05:59;;;;;;;89.53;39.58;;;9.70;99.90;;;;;;4953353;28;20066;-76
2023/05/02 05:08:26;;;;;;;93.05;43.58;;;9.80;99.90;;;;;;4956451;28;20055;-77
2023/05/02 05:10:53;;;;;;;96.65;41.17;;;9.70;99.90;;;;;;4954539;28;20130;-78
2023/05/02 05:13:21;;;;;;;93.32;43.40;;;9.70;99.90;;;;;;4957503;28;20043;-76
2023/05/02 05:15:49;;;;;;;100.80;43.80;;;9.70;99.90;;;;;;4945180;28;20563;-76
2023/05/02 05:18:17;;;;;;;93.53;42.83;;;9.70;99.90;;;;;;4954161;28;20049;-75
2023/05/02 05:20:44;;;;;;;92.35;40.97;;;9.70;99.90;;;;;;4939226;28;20043;-75
2023/05/02 05:23:11;;;;;;;107.28;45.78;;;9.70;99.90;;;;;;4955352;28;20084;-75
2023/05/02 05:25:39;;;;;;;112.07;49.70;;;9.80;99.90;;;;;;4954670;28;20046;-75
2023/05/02 05:28:07;;;;;;;98.03;45.00;;;9.70;99.90;;;;;;4938862;28;20050;-75
2023/05/02 05:30:35;;;;;;;99.22;45.08;;;9.70;99.90;;;;;;4957739;28;20054;-77
2023/05/02 05:33:05;;;;;;;99.72;43.55;;;9.70;99.90;;;;;;4938363;28;20122;-75
2023/05/02 05:35:32;;;;;;;112.90;47.38;;;9.70;99.90;;;;;;4943309;28;20039;-76
2023/05/02 05:38:00;;;;;;;115.63;49.28;;;9.70;99.90;;;;;;4953084;28;20167;-77
2023/05/02 05:40:30;;;;;;;110.70;47.47;;;9.70;99.90;;;;;;4955938;28;20069;-79
2023/05/02 05:42:57;;;;;;;115.13;50.13;;;9.70;99.90;;;;;;4939022;28;20054;-78
2023/05/02 05:45:32;;;;;;;117.03;48.33;;;9.80;99.90;;;;;;4939999;28;20063;-78
2023/05/02 05:47:58;;;;;;;119.78;49.67;;;9.80;99.90;;;;;;4938152;28;20283;-75
2023/05/02 05:50:28;;;;;;;113.50;49.72;;;9.90;99.90;;;;;;4955633;28;20042;-75
2023/05/02 05:52:55;;;;;;;110.07;47.35;;;9.80;99.90;;;;;;4954025;28;20066;-75
2023/05/02 05:55:22;;;;;;;118.90;49.83;;;9.70;99.90;;;;;;4939816;28;20051;-76
2023/05/02 05:57:49;;;;;;;116.60;50.35;;;9.60;99.90;;;;;;4937983;28;20069;-75
2023/05/02 06:00:16;;;;;;;111.03;48.90;;;9.60;99.90;;;;;;4955776;28;20049;-75
2023/05/02 06:02:45;;;;;;;121.38;51.78;;;9.60;99.90;;;;;;4955124;28;20039;-76
2023/05/02 06:05:20;;;;;;;101.20;45.13;;;9.80;99.90;;;;;;4937556;28;20126;-77
2023/05/02 06:07:47;;;;;;;96.13;41.53;;;9.80;99.90;;;;;;4937286;29;20143;-77
2023/05/02 06:10:14;;;;;;;71.20;35.17;;;9.80;99.90;;;;;;4937905;28;20050;-77
2023/05/02 06:12:42;;;;;;;82.35;36.95;;;9.80;99.90;;;;;;4941056;28;20047;-80
2023/05/02 06:15:10;;;;;;;82.32;38.08;;;9.70;99.90;;;;;;4945643;28;20580;-77
2023/05/02 06:17:38;;;;;;;102.55;41.13;;;9.60;99.90;;;;;;4935325;28;20570;-76
2023/05/02 06:20:06;;;;;;;96.10;42.80;;;9.60;99.90;;;;;;4952936;28;20051;-79
2023/05/02 06:22:32;;;;;;;110.43;48.42;;;9.70;99.90;;;;;;4939015;28;20142;-76
2023/05/02 06:24:59;;;;;;;98.35;42.10;;;9.70;99.90;;;;;;4952676;28;20606;-78
2023/05/02 06:27:26;;;;;;;93.07;40.88;;;9.80;99.90;;;;;;4940077;28;20075;-79
2023/05/02 06:29:53;;;;;;;85.38;39.10;;;9.80;99.90;;;;;;4952066;28;20055;-82
2023/05/02 06:32:20;;;;;;;78.07;37.05;;;9.70;99.90;;;;;;4933777;28;20047;-80
2023/05/02 06:34:47;;;;;;;88.05;39.45;;;9.80;99.90;;;;;;4938608;28;20083;-77
2023/05/02 06:37:13;;;;;;;82.13;39.92;;;9.80;99.90;;;;;;4938805;28;20123;-78
2023/05/02 06:39:40;;;;;;;85.63;37.53;;;9.90;99.90;;;;;;4940053;28;20526;-80
2023/05/02 06:42:07;;;;;;;85.82;39.22;;;9.90;99.90;;;;;;4951544;28;20075;-79
2023/05/02 06:44:34;;;;;;;82.10;37.05;;;9.90;99.90;;;;;;4939589;28;20047;-80
2023/05/02 06:47:03;;;;;;;65.25;32.15;;;9.90;99.90;;;;;;4935959;28;20586;-78
2023/05/02 06:49:29;;;;;;;61.95;28.60;;;9.80;99.90;;;;;;4955975;28;20413;-79
2023/05/02 06:51:56;;;;;;;48.72;24.30;;;9.80;99.90;;;;;;4934957;28;20047;-78
2023/05/02 06:54:23;;;;;;;41.65;21.52;;;9.80;99.90;;;;;;4954772;28;20043;-79
2023/05/02 06:56:49;;;;;;;35.22;20.02;;;9.80;99.90;;;;;;4952297;28;20052;-78
2023/05/02 06:59:16;;;;;;;22.33;14.30;;;9.70;99.90;;;;;;4954239;28;20054;-78
2023/05/02 07:01:43;;;;;;;16.58;9.13;;;9.50;99.90;;;;;;4954972;28;20515;-79
2023/05/02 07:04:10;;;;;;;16.67;11.18;;;9.40;99.90;;;;;;4952745;28;20035;-78
2023/05/02 07:06:39;;;;;;;16.73;9.88;;;9.30;99.90;;;;;;4953976;28;20047;-79
2023/05/02 07:09:05;;;;;;;17.60;11.43;;;9.30;99.90;;;;;;4936442;29;20051;-79
2023/05/02 07:11:32;;;;;;;18.15;10.30;;;9.30;99.90;;;;;;4953824;28;20147;-78
2023/05/02 07:13:59;;;;;;;8.65;7.10;;;9.20;99.90;;;;;;4935502;29;20058;-78
2023/05/02 07:16:26;;;;;;;9.38;6.05;;;9.10;99.90;;;;;;4949287;28;20616;-78
2023/05/02 07:18:53;;;;;;;5.95;5.00;;;8.90;99.90;;;;;;4937816;28;20035;-78
2023/05/02 07:21:20;;;;;;;5.55;4.88;;;8.70;99.90;;;;;;4937076;28;20047;-78
2023/05/02 07:23:46;;;;;;;6.47;4.95;;;8.50;99.90;;;;;;4937325;28;20515;-78
2023/05/02 07:26:13;;;;;;;8.63;5.47;;;8.40;99.90;;;;;;4951440;28;20059;-78
2023/05/02 07:28:40;;;;;;;6.05;5.28;;;8.50;99.90;;;;;;4940606;28;20043;-77
2023/05/02 07:31:06;;;;;;;8.63;5.82;;;8.50;99.90;;;;;;4937099;28;20067;-79
2023/05/02 07:33:33;;;;;;;9.15;6.13;;;8.50;99.90;;;;;;4938008;28;20130;-78
2023/05/02 07:36:00;;;;;;;5.70;5.18;;;8.70;99.90;;;;;;4935903;28;20612;-78
2023/05/02 07:38:27;;;;;;;9.07;5.00;;;8.90;99.90;;;;;;4937852;29;20058;-78
2023/05/02 07:40:57;;;;;;;7.90;5.78;;;8.80;99.90;;;;;;4920741;28;20047;-78
2023/05/02 07:43:25;;;;;;;6.40;5.80;;;8.80;99.90;;;;;;4935254;28;20087;-79
2023/05/02 07:45:52;;;;;;;9.43;6.85;;;8.70;99.90;;;;;;4951579;28;20046;-79
2023/05/02 07:48:19;;;;;;;10.25;7.20;;;8.70;99.90;;;;;;4949558;28;20050;-79
2023/05/02 07:50:45;;;;;;;12.65;7.53;;;8.70;99.90;;;;;;4938696;28;20059;-78
2023/05/02 07:53:12;;;;;;;8.63;7.47;;;8.70;99.90;;;;;;4936783;28;20412;-77
2023/05/02 07:55:39;;;;;;;9.25;8.13;;;8.70;99.90;;;;;;4938203;28;20751;-78
2023/05/02 07:58:06;;;;;;;10.55;9.20;;;8.60;99.90;;;;;;4935637;28;20047;-77
2023/05/02 08:00:33;;;;;;;14.40;8.38;;;8.50;99.90;;;;;;4937543;28;20133;-77
2023/05/02 08:03:00;;;;;;;11.75;9.57;;;8.40;99.90;;;;;;4951496;28;20054;-78
2023/05/02 08:05:27;;;;;;;12.38;9.27;;;8.40;99.90;;;;;;4921737;28;20039;-77
2023/05/02 08:07:53;;;;;;;16.20;9.10;;;8.50;99.90;;;;;;4924500;29;20039;-77
2023/05/02 08:10:20;;;;;;;29.63;11.95;;;8.50;99.90;;;;;;4936325;28;20134;-79
2023/05/02 08:12:47;;;;;;;19.80;12.48;;;8.70;99.90;;;;;;4942350;28;20043;-77
2023/05/02 08:15:13;;;;;;;16.40;11.40;;;8.60;99.90;;;;;;4939001;28;20163;-77
2023/05/02 08:17:40;;;;;;;17.05;10.57;;;8.60;99.90;;;;;;4942374;28;20035;-78
2023/05/02 08:20:07;;;;;;;15.65;11.90;;;8.70;99.90;;;;;;4938924;29;20043;-76
2023/05/02 08:22:34;;;;;;;17.33;10.55;;;8.70;99.90;;;;;;4941334;28;20042;-77
2023/05/02 08:25:01;;;;;;;18.58;10.98;;;8.70;99.90;;;;;;4939985;29;20035;-80
2023/05/02 08:27:27;;;;;;;15.05;11.65;;;8.60;99.90;;;;;;4956998;28;20508;-79
2023/05/02 08:29:54;;;;;;;13.60;11.27;;;8.60;99.90;;;;;;4935692;29;20054;-79
2023/05/02 08:32:24;;;;;;;14.82;12.68;;;8.50;99.90;;;;;;4939964;28;20107;-78
2023/05/02 08:34:55;;;;;;;13.60;11.68;;;8.50;99.90;;;;;;4941046;28;20053;-77
2023/05/02 08:37:22;;;;;;;16.58;12.45;;;8.40;99.90;;;;;;4951465;28;20078;-77
2023/05/02 08:39:48;;;;;;;14.05;12.63;;;8.40;99.90;;;;;;4945724;28;20441;-78
2023/05/02 08:42:15;;;;;;;19.85;14.13;;;8.40;99.90;;;;;;4938174;28;20050;-77
2023/05/02 08:44:41;;;;;;;23.95;15.05;;;8.50;99.90;;;;;;4956691;28;20047;-76
2023/05/02 08:47:12;;;;;;;21.45;14.20;;;8.40;99.90;;;;;;4953562;28;20054;-78
2023/05/02 08:49:39;;;;;;;26.50;15.70;;;8.40;99.90;;;;;;4957826;28;20138;-78
2023/05/02 08:52:08;;;;;;;20.25;14.63;;;8.40;99.90;;;;;;4939085;28;20053;-79
2023/05/02 08:54:37;;;;;;;18.23;13.80;;;8.30;99.90;;;;;;4941839;28;20045;-81
2023/05/02 08:57:04;;;;;;;26.25;16.63;;;8.30;99.90;;;;;;4936511;28;20062;-79
2023/05/02 08:59:31;;;;;;;31.02;17.65;;;8.10;99.90;;;;;;4957278;28;20035;-81
2023/05/02 09:02:12;;;;;;;29.75;15.85;;;8.00;99.90;;;;;;4945773;28;20035;-78
2023/05/02 09:04:41;;;;;;;26.25;14.88;;;8.00;99.90;;;;;;4954526;28;20039;-82
2023/05/02 09:07:09;;;;;;;31.00;15.60;;;8.00;99.90;;;;;;4938638;29;20552;-80
2023/05/02 09:09:36;;;;;;;25.80;16.17;;;7.90;99.90;;;;;;4937977;28;20078;-78
2023/05/02 09:12:03;;;;;;;38.75;15.63;;;7.90;99.90;;;;;;4937084;28;20047;-78
2023/05/02 09:14:31;;;;;;;31.33;16.48;;;7.90;99.90;;;;;;4956833;28;20057;-77
2023/05/02 09:16:59;;;;;;;26.35;15.85;;;7.90;99.90;;;;;;4956784;28;20126;-77
2023/05/02 09:19:26;;;;;;;27.13;16.65;;;7.90;99.90;;;;;;4940509;28;20134;-77
2023/05/02 09:22:00;;;;;;;29.90;16.65;;;7.90;99.90;;;;;;4927443;28;20049;-80
2023/05/02 09:24:27;;;;;;;27.80;16.50;;;7.90;99.90;;;;;;4954507;28;20097;-82
2023/05/02 09:26:59;;;;;;;28.48;16.88;;;8.00;99.90;;;;;;4940055;28;20094;-77
2023/05/02 09:29:29;;;;;;;20.38;15.95;;;7.90;99.90;;;;;;4940888;28;20105;-77
2023/05/02 09:31:56;;;;;;;27.75;16.90;;;7.90;99.90;;;;;;4939402;28;20039;-77
2023/05/02 09:34:23;;;;;;;22.48;17.00;;;8.00;99.90;;;;;;4939680;29;20054;-77
2023/05/02 09:36:52;;;;;;;24.98;18.75;;;8.00;99.90;;;;;;4957057;28;20071;-79
2023/05/02 09:39:22;;;;;;;19.75;17.13;;;8.00;99.90;;;;;;4939083;28;20039;-77
2023/05/02 09:41:51;;;;;;;28.60;19.60;;;8.00;99.90;;;;;;4940311;28;20045;-78
2023/05/02 09:44:20;;;;;;;29.27;19.30;;;8.10;99.90;;;;;;4954255;28;20047;-77
2023/05/02 09:46:52;;;;;;;32.10;19.58;;;8.10;99.90;;;;;;4940888;28;20482;-80
2023/05/02 09:49:37;;;;;;;29.58;19.10;;;7.90;99.90;;;;;;4938289;29;20074;-76
2023/05/02 09:52:11;;;;;;;;;;;8.00;99.90;;;;;;4955459;28;20047;-79
2023/05/02 09:54:38;;;;;;;33.60;18.30;;;8.00;99.90;;;;;;4950493;28;20037;-78
2023/05/02 09:57:06;;;;;;;34.20;18.25;;;7.90;99.90;;;;;;4935249;28;20050;-80
2023/05/02 09:59:32;;;;;;;23.45;17.38;;;8.00;99.90;;;;;;4955840;28;20035;-77
2023/05/02 10:02:01;;;;;;;30.27;19.65;;;8.10;99.90;;;;;;4941151;28;20039;-79
2023/05/02 10:04:31;;;;;;;24.85;18.98;;;8.00;99.90;;;;;;4939043;28;20058;-77
2023/05/02 10:06:58;;;;;;;30.95;20.08;;;8.00;99.90;;;;;;4958023;28;20467;-78
2023/05/02 10:09:26;;;;;;;29.55;21.08;;;8.00;99.90;;;;;;4938711;29;20050;-77
2023/05/02 10:11:55;;;;;;;27.02;20.23;;;8.10;99.90;;;;;;4943828;28;20644;-77
2023/05/02 10:14:24;;;;;;;22.83;20.42;;;8.30;99.90;;;;;;4936549;28;20070;-77
2023/05/02 10:17:20;;;;;;;28.05;21.60;;;8.20;99.90;;;;;;4939228;28;20378;-78
2023/05/02 10:19:59;;;;;;;44.78;23.55;;;8.10;99.90;;;;;;4952700;28;20043;-79
2023/05/02 10:22:26;;;;;;;28.25;22.00;;;8.10;99.90;;;;;;4953395;28;20130;-78
2023/05/02 10:24:56;;;;;;;29.25;22.45;;;8.20;99.90;;;;;;4940768;29;20106;-77
2023/05/02 10:27:24;;;;;;;28.23;22.85;;;8.10;99.90;;;;;;4952911;28;20054;-79
2023/05/02 10:29:51;;;;;;;31.80;23.45;;;8.20;99.90;;;;;;4939476;29;20083;-81
2023/05/02 10:32:20;;;;;;;33.50;25.38;;;8.40;99.90;;;;;;4953447;28;20061;-78
2023/05/02 10:34:49;;;;;;;28.55;24.00;;;8.40;99.90;;;;;;4938215;28;20530;-79
2023/05/02 10:37:17;;;;;;;37.65;26.65;;;8.40;99.90;;;;;;4937638;28;20038;-79
2023/05/02 10:39:44;;;;;;;34.30;24.50;;;8.30;99.90;;;;;;4941074;29;20071;-79
2023/05/02 10:42:13;;;;;;;39.10;26.33;;;8.30;99.90;;;;;;4938012;28;20050;-79
2023/05/02 10:44:40;;;;;;;34.97;24.58;;;8.10;99.90;;;;;;4941886;29;20043;-79
2023/05/02 10:47:26;;;;;;;36.05;26.65;;;7.90;99.90;;;;;;4936965;28;20576;-78
2023/05/02 10:49:55;;;;;;;30.77;26.13;;;7.80;99.90;;;;;;4938653;28;20122;-79
2023/05/02 10:52:29;;;;;;;33.22;25.35;;;7.90;99.90;;;;;;4953161;28;20035;-79
2023/05/02 10:55:18;;;;;;;45.23;26.57;;;8.00;99.90;;;;;;4941665;28;20051;-79
2023/05/02 10:57:57;;;;;;;29.27;24.80;;;8.10;99.90;;;;;;4954747;28;20747;-79
2023/05/02 11:00:29;;;;;;;28.95;24.95;;;8.30;99.90;;;;;;4954005;28;20052;-78
2023/05/02 11:02:56;;;;;;;31.30;26.38;;;8.50;99.90;;;;;;4938730;28;20050;-79
2023/05/02 11:05:24;;;;;;;28.42;24.88;;;8.40;99.90;;;;;;4952946;28;20036;-79
2023/05/02 11:08:16;;;;;;;33.88;26.80;;;8.60;99.90;;;;;;4941067;28;20051;-78
2023/05/02 11:10:46;;;;;;;29.38;25.13;;;8.60;99.90;;;;;;4935823;28;20155;-78
2023/05/02 11:13:12;;;;;;;32.85;25.77;;;8.70;99.90;;;;;;4942413;28;20130;-79
2023/05/02 11:15:39;;;;;;;29.15;26.48;;;8.90;99.90;;;;;;4928457;28;20055;-78
2023/05/02 11:18:08;;;;;;;32.72;26.25;;;8.90;99.90;;;;;;4951703;28;20035;-79
2023/05/02 11:20:36;;;;;;;28.73;26.13;;;8.90;99.90;;;;;;4940024;28;20106;-77
2023/05/02 11:23:14;;;;;;;29.30;26.02;;;8.90;99.90;;;;;;4935123;29;20043;-79
2023/05/02 11:25:49;;;;;;;29.88;27.17;;;8.90;99.90;;;;;;4936304;28;20065;-77
2023/05/02 11:28:35;;;;;;;28.35;25.63;;;9.00;99.90;;;;;;4936643;28;20709;-79
2023/05/02 11:31:06;;;;;;;27.98;25.45;;;9.10;99.90;;;;;;4952553;28;20051;-78
2023/05/02 11:33:33;;;;;;;28.17;25.23;;;8.90;99.90;;;;;;4952651;28;20069;-78
2023/05/02 11:36:00;;;;;;;28.73;26.10;;;9.00;99.90;;;;;;4956026;28;20048;-77
2023/05/02 11:38:36;;;;;;;29.75;26.77;;;9.10;99.90;;;;;;4936142;28;20134;-79
2023/05/02 11:41:03;;;;;;;30.17;27.25;;;9.10;99.90;;;;;;4938482;28;20118;-79
2023/05/02 11:43:30;;;;;;;30.63;28.02;;;8.90;99.90;;;;;;4936624;28;20090;-81
2023/05/02 11:45:59;;;;;;;28.75;26.08;;;8.80;99.90;;;;;;4944890;28;20560;-76
2023/05/02 11:48:26;;;;;;;28.80;26.27;;;8.90;99.90;;;;;;4939064;29;20706;-78
2023/05/02 11:51:02;;;;;;;28.55;26.20;;;8.90;99.90;;;;;;4943703;28;20075;-80
2023/05/02 11:53:30;;;;;;;28.95;26.35;;;8.70;99.90;;;;;;4940985;29;20043;-78
2023/05/02 11:55:59;;;;;;;28.33;25.67;;;8.70;99.90;;;;;;4957983;28;20043;-78
2023/05/02 11:58:33;;;;;;;30.58;26.58;;;8.80;99.90;;;;;;4923300;29;20049;-77
2023/05/02 12:01:14;;;;;;;29.20;26.23;;;8.70;99.90;;;;;;4940783;28;20086;-78
2023/05/02 12:03:41;;;;;;;29.35;26.38;;;9.00;99.90;;;;;;4961162;28;20130;-80
2023/05/02 12:06:11;;;;;;;28.15;25.88;;;8.90;99.90;;;;;;4941708;28;20058;-77
2023/05/02 12:08:40;;;;;;;27.67;25.42;;;9.00;99.90;;;;;;4942808;28;20043;-78
2023/05/02 12:11:06;;;;;;;28.83;26.17;;;9.20;99.90;;;;;;4940316;28;20102;-77
2023/05/02 12:13:33;;;;;;;28.98;26.23;;;9.30;99.90;;;;;;4944628;28;20156;-77
2023/05/02 12:16:01;;;;;;;28.10;25.70;;;9.30;99.90;;;;;;4940208;28;20070;-77
2023/05/02 12:18:28;;;;;;;30.13;26.75;;;9.30;99.90;;;;;;4939314;29;20075;-76
2023/05/02 12:20:55;;;;;;;30.02;26.98;;;9.30;99.90;;;;;;4957485;28;20425;-77
2023/05/02 12:23:25;;;;;;;29.38;26.52;;;9.30;99.90;;;;;;4955050;28;20059;-77
2023/05/02 12:25:52;;;;;;;31.85;28.23;;;9.20;99.90;;;;;;4956981;28;20102;-79
2023/05/02 12:28:19;;;;;;;30.13;27.38;;;9.10;99.90;;;;;;4939187;28;20058;-77
2023/05/02 12:30:48;;;;;;;29.70;27.20;;;8.90;99.90;;;;;;4956656;28;20042;-77
2023/05/02 12:33:16;;;;;;;30.90;28.17;;;8.80;99.90;;;;;;4951893;28;20043;-76
2023/05/02 12:35:46;;;;;;;31.02;28.02;;;8.60;99.90;;;;;;4945880;28;20619;-77
2023/05/02 12:38:22;;;;;;;31.52;28.08;;;8.50;99.90;;;;;;4924293;29;20050;-77
2023/05/02 12:40:56;;;;;;;32.03;28.85;;;8.60;99.90;;;;;;4939248;28;20066;-78
2023/05/02 12:43:23;;;;;;;32.33;29.43;;;8.50;99.90;;;;;;4939418;29;20071;-77
2023/05/02 12:46:07;;;;;;;30.45;27.40;;;8.60;99.90;;;;;;4956656;28;20291;-77